sensor_id;sensor_type;location;lat;lon;timestamp;P1;durP1;ratioP1;P2;durP2;ratioP2
7989;SDS011;4040;42.848;23.034;2022-12-28T00:01:05;19.07;;;12.57;;
7989;SDS011;4040;42.848;23.034;2022-12-28T00:03:33;26.23;;;14.87;;
7989;SDS011;4040;42.848;23.034;2022-12-28T00:09:21;24.00;;;13.97;;
7989;SDS011;4040;42.848;23.034;2022-12-28T00:15:11;32.27;;;17.80;;
7989;SDS011;4040;42.848;23.034;2022-12-28T00:21:01;33.70;;;17.20;;
7989;SDS011;4040;42.848;23.034;2022-12-28T00:26:50;46.97;;;23.63;;
7989;SDS011;4040;42.848;23.034;2022-12-28T00:32:38;97.00;;;41.80;;
7989;SDS011;4040;42.848;23.034;2022-12-28T00:38:29;51.70;;;26.67;;
7989;SDS011;4040;42.848;23.034;2022-12-28T00:44:18;50.00;;;23.50;;
7989;SDS011;4040;42.848;23.034;2022-12-28T00:50:07;29.13;;;18.13;;
7989;SDS011;4040;42.848;23.034;2022-12-28T00:56:04;42.17;;;22.20;;
7989;SDS011;4040;42.848;23.034;2022-12-28T01:01:53;33.90;;;20.50;;
7989;SDS011;4040;42.848;23.034;2022-12-28T01:07:42;55.70;;;26.27;;
7989;SDS011;4040;42.848;23.034;2022-12-28T01:13:32;29.77;;;19.13;;
7989;SDS011;4040;42.848;23.034;2022-12-28T01:19:21;35.03;;;22.17;;
7989;SDS011;4040;42.848;23.034;2022-12-28T01:25:10;49.50;;;27.33;;
7989;SDS011;4040;42.848;23.034;2022-12-28T01:31:03;31.70;;;18.73;;
7989;SDS011;4040;42.848;23.034;2022-12-28T01:36:52;42.13;;;24.37;;
7989;SDS011;4040;42.848;23.034;2022-12-28T01:42:41;32.60;;;19.30;;
7989;SDS011;4040;42.848;23.034;2022-12-28T01:48:31;30.00;;;17.83;;
7989;SDS011;4040;42.848;23.034;2022-12-28T01:54:23;27.47;;;17.33;;
7989;SDS011;4040;42.848;23.034;2022-12-28T02:00:16;27.73;;;16.17;;
7989;SDS011;4040;42.848;23.034;2022-12-28T02:10:28;30.93;;;18.50;;
7989;SDS011;4040;42.848;23.034;2022-12-28T02:16:18;27.20;;;16.90;;
7989;SDS011;4040;42.848;23.034;2022-12-28T02:22:13;21.20;;;14.63;;
7989;SDS011;4040;42.848;23.034;2022-12-28T02:28:41;22.53;;;13.50;;
7989;SDS011;4040;42.848;23.034;2022-12-28T02:34:51;25.67;;;15.47;;
7989;SDS011;4040;42.848;23.034;2022-12-28T02:40:47;19.17;;;11.83;;
7989;SDS011;4040;42.848;23.034;2022-12-28T02:46:42;15.17;;;9.43;;
7989;SDS011;4040;42.848;23.034;2022-12-28T02:53:08;12.30;;;7.83;;
7989;SDS011;4040;42.848;23.034;2022-12-28T02:59:24;12.13;;;8.13;;
7989;SDS011;4040;42.848;23.034;2022-12-28T03:05:29;13.50;;;8.00;;
7989;SDS011;4040;42.848;23.034;2022-12-28T03:11:42;8.83;;;6.17;;
7989;SDS011;4040;42.848;23.034;2022-12-28T03:17:39;10.23;;;7.07;;
7989;SDS011;4040;42.848;23.034;2022-12-28T03:20:36;9.70;;;6.67;;
7989;SDS011;4040;42.848;23.034;2022-12-28T03:26:43;12.20;;;7.47;;
7989;SDS011;4040;42.848;23.034;2022-12-28T03:32:53;10.63;;;6.40;;
7989;SDS011;4040;42.848;23.034;2022-12-28T03:38:46;8.50;;;6.33;;
7989;SDS011;4040;42.848;23.034;2022-12-28T03:44:41;11.20;;;7.00;;
7989;SDS011;4040;42.848;23.034;2022-12-28T03:50:37;8.90;;;6.87;;
7989;SDS011;4040;42.848;23.034;2022-12-28T03:56:30;11.37;;;7.03;;
7989;SDS011;4040;42.848;23.034;2022-12-28T04:02:29;14.53;;;6.00;;
7989;SDS011;4040;42.848;23.034;2022-12-28T04:12:31;8.67;;;5.37;;
7989;SDS011;4040;42.848;23.034;2022-12-28T04:18:20;8.43;;;5.37;;
7989;SDS011;4040;42.848;23.034;2022-12-28T04:24:08;10.37;;;6.17;;
7989;SDS011;4040;42.848;23.034;2022-12-28T04:29:58;14.13;;;7.43;;
7989;SDS011;4040;42.848;23.034;2022-12-28T04:35:47;10.77;;;6.60;;
7989;SDS011;4040;42.848;23.034;2022-12-28T04:41:36;11.73;;;7.53;;
7989;SDS011;4040;42.848;23.034;2022-12-28T04:47:27;7.43;;;5.17;;
7989;SDS011;4040;42.848;23.034;2022-12-28T04:53:16;9.97;;;5.73;;
7989;SDS011;4040;42.848;23.034;2022-12-28T04:59:05;14.37;;;7.70;;
7989;SDS011;4040;42.848;23.034;2022-12-28T05:04:55;9.13;;;5.70;;
7989;SDS011;4040;42.848;23.034;2022-12-28T05:15:06;8.40;;;5.00;;
7989;SDS011;4040;42.848;23.034;2022-12-28T05:20:59;11.17;;;7.27;;
7989;SDS011;4040;42.848;23.034;2022-12-28T05:26:48;12.27;;;8.60;;
7989;SDS011;4040;42.848;23.034;2022-12-28T05:32:37;6.20;;;5.57;;
7989;SDS011;4040;42.848;23.034;2022-12-28T05:38:26;8.10;;;5.97;;
7989;SDS011;4040;42.848;23.034;2022-12-28T05:44:15;10.90;;;5.70;;
7989;SDS011;4040;42.848;23.034;2022-12-28T05:50:04;13.90;;;6.50;;
7989;SDS011;4040;42.848;23.034;2022-12-28T05:55:59;27.80;;;10.33;;
7989;SDS011;4040;42.848;23.034;2022-12-28T06:01:49;14.97;;;8.67;;
7989;SDS011;4040;42.848;23.034;2022-12-28T06:07:38;14.33;;;8.60;;
7989;SDS011;4040;42.848;23.034;2022-12-28T06:17:52;9.20;;;6.03;;
7989;SDS011;4040;42.848;23.034;2022-12-28T06:23:41;11.93;;;6.43;;
7989;SDS011;4040;42.848;23.034;2022-12-28T06:29:33;14.70;;;7.53;;
7989;SDS011;4040;42.848;23.034;2022-12-28T06:35:23;18.13;;;9.63;;
7989;SDS011;4040;42.848;23.034;2022-12-28T06:41:12;18.90;;;10.93;;
7989;SDS011;4040;42.848;23.034;2022-12-28T06:47:02;52.03;;;22.20;;
7989;SDS011;4040;42.848;23.034;2022-12-28T06:52:51;17.27;;;11.57;;
7989;SDS011;4040;42.848;23.034;2022-12-28T06:58:40;12.60;;;8.77;;
7989;SDS011;4040;42.848;23.034;2022-12-28T07:04:29;16.13;;;10.70;;
7989;SDS011;4040;42.848;23.034;2022-12-28T07:10:20;13.63;;;8.27;;
7989;SDS011;4040;42.848;23.034;2022-12-28T07:20:30;12.70;;;7.33;;
7989;SDS011;4040;42.848;23.034;2022-12-28T07:26:20;14.67;;;8.30;;
7989;SDS011;4040;42.848;23.034;2022-12-28T07:32:11;12.47;;;8.00;;
7989;SDS011;4040;42.848;23.034;2022-12-28T07:37:59;11.33;;;7.40;;
7989;SDS011;4040;42.848;23.034;2022-12-28T07:43:49;11.80;;;8.80;;
7989;SDS011;4040;42.848;23.034;2022-12-28T07:49:38;11.30;;;9.07;;
7989;SDS011;4040;42.848;23.034;2022-12-28T07:55:27;11.27;;;6.47;;
7989;SDS011;4040;42.848;23.034;2022-12-28T08:01:20;18.80;;;8.40;;
7989;SDS011;4040;42.848;23.034;2022-12-28T08:07:10;26.37;;;15.20;;
7989;SDS011;4040;42.848;23.034;2022-12-28T08:12:59;19.50;;;10.33;;
7989;SDS011;4040;42.848;23.034;2022-12-28T08:23:11;21.87;;;11.67;;
7989;SDS011;4040;42.848;23.034;2022-12-28T08:29:00;19.37;;;9.80;;
7989;SDS011;4040;42.848;23.034;2022-12-28T08:34:50;21.77;;;10.63;;
7989;SDS011;4040;42.848;23.034;2022-12-28T08:40:40;31.53;;;16.40;;
7989;SDS011;4040;42.848;23.034;2022-12-28T08:46:29;21.00;;;9.57;;
7989;SDS011;4040;42.848;23.034;2022-12-28T08:52:19;16.37;;;9.27;;
7989;SDS011;4040;42.848;23.034;2022-12-28T08:58:09;16.87;;;9.40;;
7989;SDS011;4040;42.848;23.034;2022-12-28T09:03:58;15.70;;;8.47;;
7989;SDS011;4040;42.848;23.034;2022-12-28T09:09:47;11.80;;;7.40;;
7989;SDS011;4040;42.848;23.034;2022-12-28T09:15:37;18.03;;;8.47;;
7989;SDS011;4040;42.848;23.034;2022-12-28T09:25:48;32.87;;;16.53;;
7989;SDS011;4040;42.848;23.034;2022-12-28T09:31:38;87.43;;;31.33;;
7989;SDS011;4040;42.848;23.034;2022-12-28T09:37:27;44.63;;;21.53;;
7989;SDS011;4040;42.848;23.034;2022-12-28T09:43:16;138.90;;;54.70;;
7989;SDS011;4040;42.848;23.034;2022-12-28T09:49:09;123.13;;;53.87;;
7989;SDS011;4040;42.848;23.034;2022-12-28T09:55:08;54.63;;;28.37;;
7989;SDS011;4040;42.848;23.034;2022-12-28T10:00:59;42.10;;;19.43;;
7989;SDS011;4040;42.848;23.034;2022-12-28T10:06:51;16.93;;;8.97;;
7989;SDS011;4040;42.848;23.034;2022-12-28T10:12:40;24.10;;;13.83;;
7989;SDS011;4040;42.848;23.034;2022-12-28T10:18:30;66.80;;;31.30;;
7989;SDS011;4040;42.848;23.034;2022-12-28T10:28:45;9.43;;;6.03;;
7989;SDS011;4040;42.848;23.034;2022-12-28T10:34:36;11.83;;;6.37;;
7989;SDS011;4040;42.848;23.034;2022-12-28T10:40:33;7.40;;;5.53;;
7989;SDS011;4040;42.848;23.034;2022-12-28T10:46:26;8.70;;;5.67;;
7989;SDS011;4040;42.848;23.034;2022-12-28T10:52:17;10.70;;;6.53;;
7989;SDS011;4040;42.848;23.034;2022-12-28T10:58:13;8.57;;;5.77;;
7989;SDS011;4040;42.848;23.034;2022-12-28T11:04:06;12.33;;;7.47;;
7989;SDS011;4040;42.848;23.034;2022-12-28T11:10:12;9.63;;;5.50;;
7989;SDS011;4040;42.848;23.034;2022-12-28T11:16:03;10.07;;;4.70;;
7989;SDS011;4040;42.848;23.034;2022-12-28T11:21:55;8.87;;;4.60;;
7989;SDS011;4040;42.848;23.034;2022-12-28T11:32:07;21.17;;;12.57;;
7989;SDS011;4040;42.848;23.034;2022-12-28T11:38:05;28.43;;;13.27;;
7989;SDS011;4040;42.848;23.034;2022-12-28T11:43:59;30.03;;;16.80;;
7989;SDS011;4040;42.848;23.034;2022-12-28T11:49:50;25.47;;;13.23;;
7989;SDS011;4040;42.848;23.034;2022-12-28T11:55:55;7.30;;;4.27;;
7989;SDS011;4040;42.848;23.034;2022-12-28T12:01:54;9.77;;;5.47;;
7989;SDS011;4040;42.848;23.034;2022-12-28T12:07:45;8.07;;;4.57;;
7989;SDS011;4040;42.848;23.034;2022-12-28T12:13:40;15.73;;;8.27;;
7989;SDS011;4040;42.848;23.034;2022-12-28T12:19:33;6.13;;;3.70;;
7989;SDS011;4040;42.848;23.034;2022-12-28T12:25:26;24.90;;;13.30;;
7989;SDS011;4040;42.848;23.034;2022-12-28T12:31:24;70.97;;;28.30;;
7989;SDS011;4040;42.848;23.034;2022-12-28T12:43:31;8.17;;;5.17;;
7989;SDS011;4040;42.848;23.034;2022-12-28T12:49:40;7.13;;;4.30;;
7989;SDS011;4040;42.848;23.034;2022-12-28T12:55:41;10.07;;;4.67;;
7989;SDS011;4040;42.848;23.034;2022-12-28T13:01:41;12.93;;;7.20;;
7989;SDS011;4040;42.848;23.034;2022-12-28T13:07:41;11.80;;;7.07;;
7989;SDS011;4040;42.848;23.034;2022-12-28T13:13:32;7.83;;;5.10;;
7989;SDS011;4040;42.848;23.034;2022-12-28T13:19:23;10.43;;;5.40;;
7989;SDS011;4040;42.848;23.034;2022-12-28T13:25:23;6.70;;;5.00;;
7989;SDS011;4040;42.848;23.034;2022-12-28T13:35:35;6.40;;;4.33;;
7989;SDS011;4040;42.848;23.034;2022-12-28T13:41:25;8.00;;;4.97;;
7989;SDS011;4040;42.848;23.034;2022-12-28T13:47:16;6.07;;;4.67;;
7989;SDS011;4040;42.848;23.034;2022-12-28T13:53:11;9.53;;;6.70;;
7989;SDS011;4040;42.848;23.034;2022-12-28T13:59:05;8.20;;;5.00;;
7989;SDS011;4040;42.848;23.034;2022-12-28T14:04:57;16.60;;;9.73;;
7989;SDS011;4040;42.848;23.034;2022-12-28T14:10:46;13.67;;;7.63;;
7989;SDS011;4040;42.848;23.034;2022-12-28T14:16:37;44.37;;;20.53;;
7989;SDS011;4040;42.848;23.034;2022-12-28T14:22:28;23.20;;;12.50;;
7989;SDS011;4040;42.848;23.034;2022-12-28T14:28:20;30.90;;;16.63;;
7989;SDS011;4040;42.848;23.034;2022-12-28T14:38:36;19.13;;;13.00;;
7989;SDS011;4040;42.848;23.034;2022-12-28T14:44:39;26.73;;;15.87;;
7989;SDS011;4040;42.848;23.034;2022-12-28T14:50:28;25.63;;;14.17;;
7989;SDS011;4040;42.848;23.034;2022-12-28T14:56:19;24.20;;;12.37;;
7989;SDS011;4040;42.848;23.034;2022-12-28T15:02:17;22.13;;;12.27;;
7989;SDS011;4040;42.848;23.034;2022-12-28T15:08:26;34.67;;;15.13;;
7989;SDS011;4040;42.848;23.034;2022-12-28T15:14:16;21.30;;;12.27;;
7989;SDS011;4040;42.848;23.034;2022-12-28T15:20:05;24.70;;;12.83;;
7989;SDS011;4040;42.848;23.034;2022-12-28T15:25:54;27.77;;;15.17;;
7989;SDS011;4040;42.848;23.034;2022-12-28T15:31:44;54.43;;;24.83;;
7989;SDS011;4040;42.848;23.034;2022-12-28T15:37:33;109.70;;;39.83;;
7989;SDS011;4040;42.848;23.034;2022-12-28T15:43:22;116.87;;;48.00;;
7989;SDS011;4040;42.848;23.034;2022-12-28T15:49:12;41.23;;;19.93;;
7989;SDS011;4040;42.848;23.034;2022-12-28T15:55:01;52.63;;;22.13;;
7989;SDS011;4040;42.848;23.034;2022-12-28T16:00:50;48.63;;;24.17;;
7989;SDS011;4040;42.848;23.034;2022-12-28T16:06:40;49.27;;;26.17;;
7989;SDS011;4040;42.848;23.034;2022-12-28T16:12:29;37.00;;;19.43;;
7989;SDS011;4040;42.848;23.034;2022-12-28T16:18:17;53.83;;;27.27;;
7989;SDS011;4040;42.848;23.034;2022-12-28T16:24:08;86.60;;;36.33;;
7989;SDS011;4040;42.848;23.034;2022-12-28T16:29:57;58.33;;;28.77;;
7989;SDS011;4040;42.848;23.034;2022-12-28T16:35:46;89.43;;;48.53;;
7989;SDS011;4040;42.848;23.034;2022-12-28T16:41:36;82.90;;;41.40;;
7989;SDS011;4040;42.848;23.034;2022-12-28T16:47:25;79.30;;;38.47;;
7989;SDS011;4040;42.848;23.034;2022-12-28T16:53:14;66.07;;;36.87;;
7989;SDS011;4040;42.848;23.034;2022-12-28T16:59:04;79.30;;;36.50;;
7989;SDS011;4040;42.848;23.034;2022-12-28T17:04:52;82.53;;;40.77;;
7989;SDS011;4040;42.848;23.034;2022-12-28T17:10:41;98.47;;;44.83;;
7989;SDS011;4040;42.848;23.034;2022-12-28T17:16:32;251.33;;;89.33;;
7989;SDS011;4040;42.848;23.034;2022-12-28T17:22:21;114.97;;;54.07;;
7989;SDS011;4040;42.848;23.034;2022-12-28T17:28:09;108.30;;;52.50;;
7989;SDS011;4040;42.848;23.034;2022-12-28T17:34:00;168.73;;;70.80;;
7989;SDS011;4040;42.848;23.034;2022-12-28T17:39:49;130.40;;;65.10;;
7989;SDS011;4040;42.848;23.034;2022-12-28T17:45:38;382.80;;;137.33;;
7989;SDS011;4040;42.848;23.034;2022-12-28T17:51:31;142.57;;;59.23;;
7989;SDS011;4040;42.848;23.034;2022-12-28T17:57:20;155.07;;;64.90;;
7989;SDS011;4040;42.848;23.034;2022-12-28T18:03:08;116.80;;;52.97;;
7989;SDS011;4040;42.848;23.034;2022-12-28T18:08:59;129.37;;;58.13;;
7989;SDS011;4040;42.848;23.034;2022-12-28T18:14:47;146.27;;;68.17;;
7989;SDS011;4040;42.848;23.034;2022-12-28T18:20:36;144.57;;;67.87;;
7989;SDS011;4040;42.848;23.034;2022-12-28T18:26:26;119.40;;;55.80;;
7989;SDS011;4040;42.848;23.034;2022-12-28T18:32:15;130.30;;;57.23;;
7989;SDS011;4040;42.848;23.034;2022-12-28T18:42:07;62.47;;;30.80;;
7989;SDS011;4040;42.848;23.034;2022-12-28T18:47:55;232.03;;;83.17;;
7989;SDS011;4040;42.848;23.034;2022-12-28T18:53:44;204.60;;;75.03;;
7989;SDS011;4040;42.848;23.034;2022-12-28T18:59:35;163.60;;;62.23;;
7989;SDS011;4040;42.848;23.034;2022-12-28T19:05:24;122.60;;;48.77;;
7989;SDS011;4040;42.848;23.034;2022-12-28T19:11:12;96.40;;;40.60;;
7989;SDS011;4040;42.848;23.034;2022-12-28T19:17:03;111.27;;;45.07;;
7989;SDS011;4040;42.848;23.034;2022-12-28T19:22:51;84.03;;;37.03;;
7989;SDS011;4040;42.848;23.034;2022-12-28T19:28:41;143.73;;;56.77;;
7989;SDS011;4040;42.848;23.034;2022-12-28T19:34:31;128.37;;;49.93;;
7989;SDS011;4040;42.848;23.034;2022-12-28T19:44:31;145.53;;;59.10;;
7989;SDS011;4040;42.848;23.034;2022-12-28T19:50:21;121.27;;;47.70;;
7989;SDS011;4040;42.848;23.034;2022-12-28T19:56:11;126.43;;;51.77;;
7989;SDS011;4040;42.848;23.034;2022-12-28T20:02:01;77.00;;;35.63;;
7989;SDS011;4040;42.848;23.034;2022-12-28T20:07:51;84.87;;;36.40;;
7989;SDS011;4040;42.848;23.034;2022-12-28T20:13:39;40.23;;;22.23;;
7989;SDS011;4040;42.848;23.034;2022-12-28T20:19:28;34.83;;;18.63;;
7989;SDS011;4040;42.848;23.034;2022-12-28T20:25:18;34.87;;;18.57;;
7989;SDS011;4040;42.848;23.034;2022-12-28T20:31:07;27.33;;;15.60;;
7989;SDS011;4040;42.848;23.034;2022-12-28T20:36:59;23.03;;;13.57;;
7989;SDS011;4040;42.848;23.034;2022-12-28T20:47:10;24.03;;;12.70;;
7989;SDS011;4040;42.848;23.034;2022-12-28T20:52:59;21.40;;;13.37;;
7989;SDS011;4040;42.848;23.034;2022-12-28T20:58:48;18.23;;;12.30;;
7989;SDS011;4040;42.848;23.034;2022-12-28T21:04:38;24.77;;;14.13;;
7989;SDS011;4040;42.848;23.034;2022-12-28T21:10:26;19.33;;;12.73;;
7989;SDS011;4040;42.848;23.034;2022-12-28T21:16:16;25.00;;;14.70;;
7989;SDS011;4040;42.848;23.034;2022-12-28T21:22:06;24.87;;;15.50;;
7989;SDS011;4040;42.848;23.034;2022-12-28T21:27:55;25.37;;;14.87;;
7989;SDS011;4040;42.848;23.034;2022-12-28T21:33:44;22.13;;;13.97;;
7989;SDS011;4040;42.848;23.034;2022-12-28T21:39:34;22.17;;;13.70;;
7989;SDS011;4040;42.848;23.034;2022-12-28T21:49:44;126.13;;;49.23;;
7989;SDS011;4040;42.848;23.034;2022-12-28T21:55:35;71.47;;;34.17;;
7989;SDS011;4040;42.848;23.034;2022-12-28T22:01:29;61.50;;;30.60;;
7989;SDS011;4040;42.848;23.034;2022-12-28T22:07:35;56.53;;;26.30;;
7989;SDS011;4040;42.848;23.034;2022-12-28T22:13:25;24.47;;;15.30;;
7989;SDS011;4040;42.848;23.034;2022-12-28T22:19:13;26.57;;;15.83;;
7989;SDS011;4040;42.848;23.034;2022-12-28T22:25:02;23.77;;;14.87;;
7989;SDS011;4040;42.848;23.034;2022-12-28T22:30:52;26.03;;;14.33;;
7989;SDS011;4040;42.848;23.034;2022-12-28T22:36:41;22.93;;;13.83;;
7989;SDS011;4040;42.848;23.034;2022-12-28T22:42:30;26.80;;;16.03;;
7989;SDS011;4040;42.848;23.034;2022-12-28T22:52:42;31.13;;;17.90;;
7989;SDS011;4040;42.848;23.034;2022-12-28T22:58:31;21.23;;;12.87;;
7989;SDS011;4040;42.848;23.034;2022-12-28T23:18:53;19.33;;;12.73;;
7989;SDS011;4040;42.848;23.034;2022-12-28T23:25:00;17.47;;;11.87;;
7989;SDS011;4040;42.848;23.034;2022-12-28T23:31:06;20.60;;;12.40;;
7989;SDS011;4040;42.848;23.034;2022-12-28T23:36:56;22.30;;;13.40;;
7989;SDS011;4040;42.848;23.034;2022-12-28T23:42:44;20.23;;;12.40;;
7989;SDS011;4040;42.848;23.034;2022-12-28T23:48:33;19.07;;;12.37;;
7989;SDS011;4040;42.848;23.034;2022-12-28T23:54:23;25.17;;;13.17;;
